sensor_id;sensor_type;location;lat;lon;timestamp;pressure;altitude;pressure_sealevel;temperature;humidity
57894;BME280;43710;47.460;19.034;2022-09-12T04:00:13;100333.00;;;16.85;71.50
57894;BME280;43710;47.460;19.034;2022-09-12T04:03:21;100333.00;;;16.85;71.50
57894;BME280;43710;47.460;19.034;2022-09-12T04:06:23;100342.78;;;16.25;72.31
57894;BME280;43710;47.460;19.034;2022-09-12T04:09:25;100340.09;;;16.42;73.06
57894;BME280;43710;47.460;19.034;2022-09-12T04:12:28;100339.25;;;16.42;71.69
57894;BME280;43710;47.460;19.034;2022-09-12T04:15:30;100330.34;;;16.41;71.59
57894;BME280;43710;47.460;19.034;2022-09-12T04:18:34;100324.63;;;16.52;71.36
57894;BME280;43710;47.460;19.034;2022-09-12T04:21:36;100334.19;;;16.49;70.06
57894;BME280;43710;47.460;19.034;2022-09-12T04:24:40;100325.88;;;16.45;69.54
57894;BME280;43710;47.460;19.034;2022-09-12T04:27:42;100334.34;;;16.53;69.26
57894;BME280;43710;47.460;19.034;2022-09-12T04:30:44;100334.94;;;16.58;69.08
57894;BME280;43710;47.460;19.034;2022-09-12T04:34:58;100319.66;;;17.18;66.74
57894;BME280;43710;47.460;19.034;2022-09-12T04:38:01;100319.66;;;17.18;66.74
57894;BME280;43710;47.460;19.034;2022-09-12T04:41:14;100333.03;;;16.76;67.29
57894;BME280;43710;47.460;19.034;2022-09-12T04:44:17;100338.47;;;16.76;67.37
57894;BME280;43710;47.460;19.034;2022-09-12T04:47:19;100338.91;;;16.78;67.51
57894;BME280;43710;47.460;19.034;2022-09-12T04:50:21;100341.78;;;16.73;67.85
57894;BME280;43710;47.460;19.034;2022-09-12T04:53:23;100341.78;;;16.73;68.42
57894;BME280;43710;47.460;19.034;2022-09-12T04:56:27;100345.94;;;16.79;68.52
57894;BME280;43710;47.460;19.034;2022-09-12T04:59:29;100349.91;;;16.73;68.88
57894;BME280;43710;47.460;19.034;2022-09-12T05:02:33;100355.78;;;16.84;69.75
57894;BME280;43710;47.460;19.034;2022-09-12T05:05:35;100359.31;;;16.76;68.68
57894;BME280;43710;47.460;19.034;2022-09-12T05:08:38;100362.31;;;16.74;69.07
57894;BME280;43710;47.460;19.034;2022-09-12T05:11:42;100361.84;;;16.72;69.91
57894;BME280;43710;47.460;19.034;2022-09-12T05:15:05;100365.69;;;16.80;69.54
57894;BME280;43710;47.460;19.034;2022-09-12T05:18:07;100363.91;;;16.93;68.80
57894;BME280;43710;47.460;19.034;2022-09-12T05:21:13;100375.16;;;17.03;67.92
57894;BME280;43710;47.460;19.034;2022-09-12T05:24:15;100374.97;;;17.08;67.81
57894;BME280;43710;47.460;19.034;2022-09-12T05:27:17;100380.22;;;17.13;68.08
57894;BME280;43710;47.460;19.034;2022-09-12T05:30:20;100383.72;;;17.14;67.47
57894;BME280;43710;47.460;19.034;2022-09-12T05:33:23;100385.94;;;17.21;67.24
57894;BME280;43710;47.460;19.034;2022-09-12T05:36:27;100387.34;;;17.27;66.25
57894;BME280;43710;47.460;19.034;2022-09-12T05:39:30;100381.16;;;17.26;65.77
57894;BME280;43710;47.460;19.034;2022-09-12T05:42:32;100389.22;;;17.35;65.15
57894;BME280;43710;47.460;19.034;2022-09-12T05:45:34;100384.56;;;17.44;64.88
57894;BME280;43710;47.460;19.034;2022-09-12T05:48:38;100387.91;;;17.50;64.32
57894;BME280;43710;47.460;19.034;2022-09-12T05:51:43;100386.91;;;17.54;64.25
57894;BME280;43710;47.460;19.034;2022-09-12T05:54:47;100388.81;;;17.54;64.09
57894;BME280;43710;47.460;19.034;2022-09-12T05:57:50;100387.88;;;17.58;64.64
57894;BME280;43710;47.460;19.034;2022-09-12T06:00:52;100385.87;;;17.68;64.56
57894;BME280;43710;47.460;19.034;2022-09-12T06:03:57;100392.03;;;17.86;64.66
57894;BME280;43710;47.460;19.034;2022-09-12T06:07:01;100403.81;;;17.90;63.36
57894;BME280;43710;47.460;19.034;2022-09-12T06:10:04;100398.12;;;17.82;64.36
57894;BME280;43710;47.460;19.034;2022-09-12T06:13:06;100394.81;;;17.77;63.46
57894;BME280;43710;47.460;19.034;2022-09-12T06:16:11;100396.22;;;17.74;63.90
57894;BME280;43710;47.460;19.034;2022-09-12T06:19:16;100407.97;;;17.87;63.53
57894;BME280;43710;47.460;19.034;2022-09-12T06:22:19;100398.44;;;17.81;64.07
57894;BME280;43710;47.460;19.034;2022-09-12T06:25:21;100396.72;;;17.76;64.42
57894;BME280;43710;47.460;19.034;2022-09-12T06:28:24;100408.66;;;17.75;63.26
57894;BME280;43710;47.460;19.034;2022-09-12T06:31:29;100401.34;;;17.67;63.77
57894;BME280;43710;47.460;19.034;2022-09-12T06:34:32;100403.06;;;17.80;65.61
57894;BME280;43710;47.460;19.034;2022-09-12T06:37:34;100407.47;;;17.94;63.28
57894;BME280;43710;47.460;19.034;2022-09-12T06:40:41;100409.06;;;17.95;62.41
57894;BME280;43710;47.460;19.034;2022-09-12T06:43:47;100409.00;;;18.03;62.37
57894;BME280;43710;47.460;19.034;2022-09-12T06:46:49;100406.63;;;18.02;61.69
57894;BME280;43710;47.460;19.034;2022-09-12T06:49:51;100409.72;;;18.13;61.63
57894;BME280;43710;47.460;19.034;2022-09-12T06:52:54;100402.00;;;18.23;61.68
57894;BME280;43710;47.460;19.034;2022-09-12T06:56:01;100407.34;;;18.32;61.02
57894;BME280;43710;47.460;19.034;2022-09-12T06:59:04;100411.38;;;18.47;59.06
57894;BME280;43710;47.460;19.034;2022-09-12T07:02:07;100416.16;;;18.50;60.73
57894;BME280;43710;47.460;19.034;2022-09-12T07:05:10;100412.75;;;18.53;59.98
57894;BME280;43710;47.460;19.034;2022-09-12T07:08:12;100408.72;;;18.59;59.20
57894;BME280;43710;47.460;19.034;2022-09-12T07:11:19;100407.41;;;18.65;58.22
57894;BME280;43710;47.460;19.034;2022-09-12T07:14:21;100405.94;;;18.68;58.37
57894;BME280;43710;47.460;19.034;2022-09-12T07:17:25;100409.09;;;18.70;57.57
57894;BME280;43710;47.460;19.034;2022-09-12T07:20:29;100422.16;;;18.76;58.51
57894;BME280;43710;47.460;19.034;2022-09-12T07:23:34;100407.91;;;18.80;57.35
57894;BME280;43710;47.460;19.034;2022-09-12T07:26:39;100410.56;;;18.88;57.04
57894;BME280;43710;47.460;19.034;2022-09-12T07:29:41;100412.50;;;19.00;57.57
57894;BME280;43710;47.460;19.034;2022-09-12T07:32:45;100414.00;;;18.97;56.59
57894;BME280;43710;47.460;19.034;2022-09-12T07:35:47;100415.69;;;19.02;56.25
57894;BME280;43710;47.460;19.034;2022-09-12T07:38:54;100420.34;;;19.01;56.95
57894;BME280;43710;47.460;19.034;2022-09-12T07:41:58;100425.53;;;18.94;56.78
57894;BME280;43710;47.460;19.034;2022-09-12T07:45:01;100435.16;;;18.71;57.68
57894;BME280;43710;47.460;19.034;2022-09-12T07:48:03;100437.03;;;18.70;57.56
57894;BME280;43710;47.460;19.034;2022-09-12T07:51:08;100430.50;;;18.71;57.81
57894;BME280;43710;47.460;19.034;2022-09-12T07:54:11;100422.50;;;18.75;57.52
57894;BME280;43710;47.460;19.034;2022-09-12T07:57:14;100425.75;;;18.68;56.90
57894;BME280;43710;47.460;19.034;2022-09-12T08:00:17;100431.16;;;18.68;56.92
57894;BME280;43710;47.460;19.034;2022-09-12T08:03:19;100425.06;;;18.71;56.28
57894;BME280;43710;47.460;19.034;2022-09-12T08:06:22;100436.75;;;18.72;57.17
57894;BME280;43710;47.460;19.034;2022-09-12T08:09:25;100432.84;;;18.82;55.17
57894;BME280;43710;47.460;19.034;2022-09-12T08:12:28;100426.31;;;18.95;55.35
57894;BME280;43710;47.460;19.034;2022-09-12T08:15:30;100423.22;;;19.17;55.41
57894;BME280;43710;47.460;19.034;2022-09-12T08:18:33;100423.09;;;19.26;54.87
57894;BME280;43710;47.460;19.034;2022-09-12T08:21:36;100426.28;;;19.28;53.35
57894;BME280;43710;47.460;19.034;2022-09-12T08:24:38;100427.53;;;19.31;54.34
57894;BME280;43710;47.460;19.034;2022-09-12T08:27:41;100415.75;;;19.39;54.25
57894;BME280;43710;47.460;19.034;2022-09-12T08:30:43;100428.22;;;19.52;54.38
57894;BME280;43710;47.460;19.034;2022-09-12T08:33:46;100423.56;;;19.53;54.10
57894;BME280;43710;47.460;19.034;2022-09-12T08:36:48;100422.56;;;19.57;53.70
57894;BME280;43710;47.460;19.034;2022-09-12T08:39:50;100426.50;;;19.60;53.78
57894;BME280;43710;47.460;19.034;2022-09-12T08:43:12;100424.81;;;19.55;53.80
57894;BME280;43710;47.460;19.034;2022-09-12T08:50:27;100422.94;;;19.68;53.75
57894;BME280;43710;47.460;19.034;2022-09-12T08:53:33;100415.34;;;19.74;53.02
57894;BME280;43710;47.460;19.034;2022-09-12T08:56:37;100417.16;;;19.82;52.17
57894;BME280;43710;47.460;19.034;2022-09-12T08:59:42;100404.78;;;19.84;53.11
57894;BME280;43710;47.460;19.034;2022-09-12T09:02:51;100412.28;;;19.87;51.93
57894;BME280;43710;47.460;19.034;2022-09-12T09:12:53;100413.25;;;20.07;53.53
57894;BME280;43710;47.460;19.034;2022-09-12T09:19:24;100409.38;;;20.21;52.54
57894;BME280;43710;47.460;19.034;2022-09-12T09:22:35;100412.88;;;20.21;51.60
57894;BME280;43710;47.460;19.034;2022-09-12T09:29:09;100408.69;;;20.24;51.59
57894;BME280;43710;47.460;19.034;2022-09-12T09:32:25;100413.00;;;20.25;50.97
57894;BME280;43710;47.460;19.034;2022-09-12T09:35:43;100417.84;;;20.31;51.31
57894;BME280;43710;47.460;19.034;2022-09-12T09:38:49;100402.47;;;20.23;50.63
57894;BME280;43710;47.460;19.034;2022-09-12T09:45:22;100410.72;;;20.27;52.01
57894;BME280;43710;47.460;19.034;2022-09-12T09:48:36;100407.94;;;20.39;51.30
57894;BME280;43710;47.460;19.034;2022-09-12T09:51:41;100409.66;;;20.44;51.45
57894;BME280;43710;47.460;19.034;2022-09-12T09:54:47;100404.06;;;20.52;51.44
57894;BME280;43710;47.460;19.034;2022-09-12T09:57:51;100412.00;;;20.57;50.55
57894;BME280;43710;47.460;19.034;2022-09-12T10:01:01;100409.72;;;20.59;50.98
57894;BME280;43710;47.460;19.034;2022-09-12T10:04:04;100414.22;;;20.68;51.86
57894;BME280;43710;47.460;19.034;2022-09-12T10:07:16;100404.81;;;20.65;52.52
57894;BME280;43710;47.460;19.034;2022-09-12T10:10:20;100395.63;;;20.70;52.86
57894;BME280;43710;47.460;19.034;2022-09-12T10:16:52;100399.75;;;20.79;50.87
57894;BME280;43710;47.460;19.034;2022-09-12T10:19:55;100403.25;;;20.64;49.98
57894;BME280;43710;47.460;19.034;2022-09-12T10:26:20;100417.19;;;20.22;50.51
57894;BME280;43710;47.460;19.034;2022-09-12T10:29:28;100416.97;;;20.15;51.43
57894;BME280;43710;47.460;19.034;2022-09-12T10:32:37;100425.03;;;20.11;52.29
57894;BME280;43710;47.460;19.034;2022-09-12T10:35:44;100424.16;;;20.07;53.91
57894;BME280;43710;47.460;19.034;2022-09-12T10:38:49;100412.56;;;20.10;52.75
57894;BME280;43710;47.460;19.034;2022-09-12T10:41:52;100418.44;;;20.25;53.67
57894;BME280;43710;47.460;19.034;2022-09-12T10:44:54;100413.09;;;20.28;53.13
57894;BME280;43710;47.460;19.034;2022-09-12T10:47:59;100414.06;;;20.36;53.51
57894;BME280;43710;47.460;19.034;2022-09-12T10:51:26;100396.00;;;20.56;53.84
57894;BME280;43710;47.460;19.034;2022-09-12T10:54:29;100391.38;;;20.72;54.02
57894;BME280;43710;47.460;19.034;2022-09-12T10:57:59;100391.69;;;20.83;53.65
57894;BME280;43710;47.460;19.034;2022-09-12T11:07:42;100389.13;;;20.74;51.36
57894;BME280;43710;47.460;19.034;2022-09-12T11:10:54;100396.13;;;20.75;50.99
57894;BME280;43710;47.460;19.034;2022-09-12T11:24:15;100391.38;;;20.44;48.95
57894;BME280;43710;47.460;19.034;2022-09-12T11:30:40;100389.34;;;20.41;50.19
57894;BME280;43710;47.460;19.034;2022-09-12T11:33:49;100393.81;;;20.33;51.57
57894;BME280;43710;47.460;19.034;2022-09-12T11:37:14;100399.25;;;20.33;51.01
57894;BME280;43710;47.460;19.034;2022-09-12T11:44:18;100392.78;;;20.26;52.28
57894;BME280;43710;47.460;19.034;2022-09-12T11:47:22;100401.62;;;20.23;52.00
57894;BME280;43710;47.460;19.034;2022-09-12T11:50:29;100403.09;;;20.32;52.47
57894;BME280;43710;47.460;19.034;2022-09-12T11:53:35;100395.91;;;20.52;53.54
57894;BME280;43710;47.460;19.034;2022-09-12T11:56:44;100393.78;;;20.74;53.55
57894;BME280;43710;47.460;19.034;2022-09-12T11:59:55;100386.84;;;20.92;54.67
57894;BME280;43710;47.460;19.034;2022-09-12T12:03:05;100372.37;;;21.04;54.40
57894;BME280;43710;47.460;19.034;2022-09-12T12:06:16;100377.62;;;20.81;54.01
57894;BME280;43710;47.460;19.034;2022-09-12T12:09:20;100381.72;;;20.75;54.80
57894;BME280;43710;47.460;19.034;2022-09-12T12:12:24;100382.44;;;20.72;53.31
57894;BME280;43710;47.460;19.034;2022-09-12T12:15:29;100379.56;;;20.52;52.56
57894;BME280;43710;47.460;19.034;2022-09-12T12:18:33;100372.31;;;20.44;52.69
57894;BME280;43710;47.460;19.034;2022-09-12T12:21:45;100366.88;;;20.44;53.18
57894;BME280;43710;47.460;19.034;2022-09-12T12:25:21;100367.75;;;20.60;54.30
57894;BME280;43710;47.460;19.034;2022-09-12T12:38:41;100357.97;;;21.03;53.06
57894;BME280;43710;47.460;19.034;2022-09-12T12:41:44;100363.31;;;21.16;51.86
57894;BME280;43710;47.460;19.034;2022-09-12T12:44:49;100348.87;;;21.15;49.67
57894;BME280;43710;47.460;19.034;2022-09-12T12:47:56;100351.97;;;21.29;51.54
57894;BME280;43710;47.460;19.034;2022-09-12T12:51:26;100343.38;;;21.43;48.16
57894;BME280;43710;47.460;19.034;2022-09-12T12:57:49;100362.00;;;21.57;47.61
57894;BME280;43710;47.460;19.034;2022-09-12T13:04:17;100349.06;;;21.22;48.16
57894;BME280;43710;47.460;19.034;2022-09-12T13:07:22;100347.94;;;21.23;48.82
57894;BME280;43710;47.460;19.034;2022-09-12T13:10:28;100352.84;;;21.18;49.83
57894;BME280;43710;47.460;19.034;2022-09-12T13:13:52;100353.13;;;21.12;48.43
57894;BME280;43710;47.460;19.034;2022-09-12T13:17:00;100351.09;;;21.09;48.96
57894;BME280;43710;47.460;19.034;2022-09-12T13:23:31;100342.72;;;21.02;48.72
57894;BME280;43710;47.460;19.034;2022-09-12T13:26:40;100342.84;;;21.06;49.33
57894;BME280;43710;47.460;19.034;2022-09-12T13:29:43;100342.66;;;21.15;49.99
57894;BME280;43710;47.460;19.034;2022-09-12T13:32:45;100344.84;;;21.09;47.91
57894;BME280;43710;47.460;19.034;2022-09-12T13:39:26;100332.09;;;21.13;48.87
57894;BME280;43710;47.460;19.034;2022-09-12T13:45:41;100326.19;;;21.27;49.05
57894;BME280;43710;47.460;19.034;2022-09-12T13:48:44;100332.00;;;21.25;48.56
57894;BME280;43710;47.460;19.034;2022-09-12T13:51:59;100325.56;;;21.33;46.55
57894;BME280;43710;47.460;19.034;2022-09-12T13:55:17;100331.28;;;21.28;47.27
57894;BME280;43710;47.460;19.034;2022-09-12T13:58:32;100318.28;;;21.22;46.81
57894;BME280;43710;47.460;19.034;2022-09-12T14:01:38;100321.63;;;21.15;48.09
57894;BME280;43710;47.460;19.034;2022-09-12T14:04:46;100326.03;;;21.20;47.55
57894;BME280;43710;47.460;19.034;2022-09-12T14:08:08;100324.38;;;20.99;46.55
57894;BME280;43710;47.460;19.034;2022-09-12T14:11:29;100324.72;;;20.98;47.44
57894;BME280;43710;47.460;19.034;2022-09-12T14:14:33;100329.38;;;20.97;47.33
57894;BME280;43710;47.460;19.034;2022-09-12T14:17:37;100317.69;;;20.97;47.09
57894;BME280;43710;47.460;19.034;2022-09-12T14:20:40;100328.16;;;20.95;46.53
57894;BME280;43710;47.460;19.034;2022-09-12T14:23:44;100324.19;;;20.92;46.36
57894;BME280;43710;47.460;19.034;2022-09-12T14:26:51;100327.19;;;20.87;47.46
57894;BME280;43710;47.460;19.034;2022-09-12T14:30:06;100327.97;;;21.03;47.36
57894;BME280;43710;47.460;19.034;2022-09-12T14:36:33;100319.28;;;21.14;47.14
57894;BME280;43710;47.460;19.034;2022-09-12T14:39:40;100326.03;;;21.20;43.60
57894;BME280;43710;47.460;19.034;2022-09-12T14:42:44;100318.44;;;21.29;43.55
57894;BME280;43710;47.460;19.034;2022-09-12T14:45:55;100324.63;;;21.26;43.91
57894;BME280;43710;47.460;19.034;2022-09-12T14:52:31;100311.41;;;21.28;43.72
57894;BME280;43710;47.460;19.034;2022-09-12T14:55:41;100313.88;;;21.33;42.69
57894;BME280;43710;47.460;19.034;2022-09-12T14:58:45;100321.87;;;21.42;42.90
57894;BME280;43710;47.460;19.034;2022-09-12T15:01:47;100313.09;;;21.32;42.20
57894;BME280;43710;47.460;19.034;2022-09-12T15:05:14;100311.00;;;21.26;41.85
57894;BME280;43710;47.460;19.034;2022-09-12T15:08:17;100309.16;;;21.14;41.95
57894;BME280;43710;47.460;19.034;2022-09-12T15:11:22;100309.41;;;21.09;42.92
57894;BME280;43710;47.460;19.034;2022-09-12T15:14:24;100304.56;;;21.18;42.37
57894;BME280;43710;47.460;19.034;2022-09-12T15:17:26;100313.12;;;21.17;43.58
57894;BME280;43710;47.460;19.034;2022-09-12T15:20:28;100307.81;;;21.24;42.45
57894;BME280;43710;47.460;19.034;2022-09-12T15:23:40;100308.78;;;21.31;42.61
57894;BME280;43710;47.460;19.034;2022-09-12T15:26:43;100302.44;;;21.27;42.62
57894;BME280;43710;47.460;19.034;2022-09-12T15:29:46;100295.13;;;21.31;43.15
57894;BME280;43710;47.460;19.034;2022-09-12T15:32:48;100307.81;;;21.24;44.02
57894;BME280;43710;47.460;19.034;2022-09-12T15:35:51;100304.31;;;21.23;41.85
57894;BME280;43710;47.460;19.034;2022-09-12T15:38:54;100304.56;;;21.18;42.12
57894;BME280;43710;47.460;19.034;2022-09-12T15:41:56;100310.88;;;21.22;40.92
57894;BME280;43710;47.460;19.034;2022-09-12T15:44:58;100306.50;;;21.18;40.21
57894;BME280;43710;47.460;19.034;2022-09-12T15:48:03;100309.06;;;21.10;41.07
57894;BME280;43710;47.460;19.034;2022-09-12T15:51:17;100309.69;;;21.04;41.61
57894;BME280;43710;47.460;19.034;2022-09-12T15:54:19;100311.34;;;21.08;41.42
57894;BME280;43710;47.460;19.034;2022-09-12T15:57:22;100301.50;;;21.04;42.41
57894;BME280;43710;47.460;19.034;2022-09-12T16:00:24;100304.06;;;20.97;42.36
57894;BME280;43710;47.460;19.034;2022-09-12T16:03:28;100304.22;;;20.88;42.65
57894;BME280;43710;47.460;19.034;2022-09-12T16:06:30;100299.22;;;20.90;42.85
